Time;durP1;ratioP1;P1;durP2;ratioP2;P2;SDS_P1;SDS_P2;PMS_P1;PMS_P2;Temp;Humidity;BMP_temperature;BMP_pressure;BME280_temperature;BME280_humidity;BME280_pressure;Samples;Min_cycle;Max_cycle;Signal;HPM_P1;HPM_P2
2022/10/18 00:01:46;;;;;;;27.77;14.95;;;;;;;;;;5092071;28;20038;-41
2022/10/18 00:04:11;;;;;;;24.30;14.25;;;;;;;;;;5091783;28;20059;-42
2022/10/18 00:06:36;;;;;;;28.10;14.70;;;;;;;;;;5091780;28;20435;-38
2022/10/18 00:09:02;;;;;;;22.23;14.80;;;;;;;;;;5091480;28;20033;-43
2022/10/18 00:11:27;;;;;;;26.95;13.77;;;;;;;;;;5091689;28;20024;-42
2022/10/18 00:13:54;;;;;;;24.10;13.93;;;;;;;;;;5091332;28;20136;-42
2022/10/18 00:16:19;;;;;;;29.80;14.52;;;;;;;;;;5091404;28;20028;-41
2022/10/18 00:18:47;;;;;;;26.27;14.48;;;;;;;;;;5091298;28;20032;-41
2022/10/18 00:21:19;;;;;;;22.15;13.77;;;;;;;;;;5091310;28;20371;-43
2022/10/18 00:23:45;;;;;;;30.00;13.95;;;;;;;;;;5091443;28;20028;-43
2022/10/18 00:26:15;;;;;;;25.85;13.80;;;;;;;;;;5090914;28;20020;-44
2022/10/18 00:28:41;;;;;;;21.95;13.50;;;;;;;;;;5090575;28;20027;-42
2022/10/18 00:31:09;;;;;;;23.88;13.82;;;;;;;;;;5091178;28;20020;-44
2022/10/18 00:33:34;;;;;;;32.92;15.15;;;;;;;;;;5091670;28;20632;-43
2022/10/18 00:36:00;;;;;;;27.38;14.93;;;;;;;;;;5091492;28;20205;-40
2022/10/18 00:38:25;;;;;;;30.60;16.00;;;;;;;;;;5091631;28;20091;-43
2022/10/18 00:40:50;;;;;;;25.05;15.00;;;;;;;;;;5090672;28;20028;-42
2022/10/18 00:43:16;;;;;;;27.20;14.20;;;;;;;;;;5090715;28;20042;-42
2022/10/18 00:45:42;;;;;;;27.08;15.30;;;;;;;;;;5091434;28;20513;-43
2022/10/18 00:48:07;;;;;;;22.77;14.93;;;;;;;;;;5090937;28;20048;-43
2022/10/18 00:50:33;;;;;;;28.08;13.68;;;;;;;;;;5091189;28;20016;-44
2022/10/18 00:53:01;;;;;;;26.15;15.68;;;;;;;;;;5090925;28;20012;-45
2022/10/18 00:55:27;;;;;;;22.10;13.38;;;;;;;;;;5090997;28;20105;-41
2022/10/18 00:57:52;;;;;;;21.63;13.50;;;;;;;;;;5090811;28;20082;-45
2022/10/18 01:00:18;;;;;;;24.42;14.27;;;;;;;;;;5091270;28;20107;-43
2022/10/18 01:02:44;;;;;;;25.73;15.13;;;;;;;;;;5092633;28;20024;-42
2022/10/18 01:05:11;;;;;;;31.15;15.68;;;;;;;;;;5094872;28;20082;-43
2022/10/18 01:07:36;;;;;;;24.77;15.10;;;;;;;;;;5094872;28;20024;-43
2022/10/18 01:10:25;;;;;;;30.20;15.30;;;;;;;;;;5095137;28;20459;-42
2022/10/18 01:12:59;;;;;;;28.13;15.90;;;;;;;;;;5080811;28;20306;-42
2022/10/18 01:15:36;;;;;;;32.70;15.68;;;;;;;;;;5094859;28;20053;-43
2022/10/18 01:18:13;;;;;;;26.65;15.55;;;;;;;;;;5094786;28;20044;-39
2022/10/18 01:21:03;;;;;;;33.88;16.52;;;;;;;;;;5094717;28;20031;-43
2022/10/18 01:23:43;;;;;;;25.42;14.65;;;;;;;;;;5094219;28;20075;-41
2022/10/18 01:26:11;;;;;;;29.80;16.73;;;;;;;;;;5094815;28;20111;-41
2022/10/18 01:28:37;;;;;;;22.42;14.55;;;;;;;;;;5094670;28;20055;-45
2022/10/18 01:31:04;;;;;;;27.83;15.32;;;;;;;;;;5094377;28;20502;-38
2022/10/18 01:33:36;;;;;;;24.63;14.18;;;;;;;;;;5094079;28;20494;-41
2022/10/18 01:36:01;;;;;;;24.85;14.48;;;;;;;;;;5094287;28;20535;-42
2022/10/18 01:38:28;;;;;;;26.33;15.30;;;;;;;;;;5094494;28;20065;-40
2022/10/18 01:40:54;;;;;;;24.92;15.57;;;;;;;;;;5094322;28;20307;-41
2022/10/18 01:43:21;;;;;;;29.77;15.85;;;;;;;;;;5094012;28;20028;-40
2022/10/18 01:45:47;;;;;;;26.67;16.17;;;;;;;;;;5093921;28;20108;-42
2022/10/18 01:48:12;;;;;;;32.15;16.60;;;;;;;;;;5093859;28;20135;-38
2022/10/18 01:50:38;;;;;;;28.67;15.25;;;;;;;;;;5094008;28;20016;-43
2022/10/18 01:53:03;;;;;;;31.02;17.23;;;;;;;;;;5094116;28;20035;-42
2022/10/18 01:55:42;;;;;;;26.85;15.50;;;;;;;;;;5093690;28;20103;-42
2022/10/18 01:58:17;;;;;;;26.85;17.08;;;;;;;;;;5093580;28;20109;-36
2022/10/18 02:00:43;;;;;;;28.90;17.02;;;;;;;;;;5093942;28;20024;-39
2022/10/18 02:03:14;;;;;;;24.52;14.98;;;;;;;;;;5093840;28;20115;-40
2022/10/18 02:05:46;;;;;;;25.42;15.90;;;;;;;;;;5094005;28;20073;-44
2022/10/18 02:08:25;;;;;;;27.77;16.02;;;;;;;;;;5093655;28;20455;-41
2022/10/18 02:10:54;;;;;;;24.77;14.32;;;;;;;;;;5093478;28;20474;-40
2022/10/18 02:13:20;;;;;;;24.20;14.05;;;;;;;;;;5093767;28;20016;-42
2022/10/18 02:15:47;;;;;;;23.17;14.43;;;;;;;;;;5093963;28;20032;-43
2022/10/18 02:18:23;;;;;;;26.52;14.30;;;;;;;;;;5093815;28;20016;-43
2022/10/18 02:20:48;;;;;;;23.48;14.68;;;;;;;;;;5093302;28;20089;-40
2022/10/18 02:23:15;;;;;;;25.77;14.70;;;;;;;;;;5093380;28;20020;-38
2022/10/18 02:25:40;;;;;;;26.73;14.80;;;;;;;;;;5093017;28;20471;-45
2022/10/18 02:28:05;;;;;;;24.85;14.93;;;;;;;;;;5093700;28;20028;-42
2022/10/18 02:30:36;;;;;;;23.10;14.40;;;;;;;;;;5094289;28;20028;-43
2022/10/18 02:33:22;;;;;;;28.20;15.35;;;;;;;;;;5092820;28;20142;-42
2022/10/18 02:35:50;;;;;;;26.27;15.93;;;;;;;;;;5075223;28;20036;-42
2022/10/18 02:38:16;;;;;;;33.22;17.58;;;;;;;;;;5092709;28;20026;-42
2022/10/18 02:40:42;;;;;;;28.00;16.10;;;;;;;;;;5093370;28;20103;-42
2022/10/18 02:43:07;;;;;;;32.17;16.17;;;;;;;;;;5092906;28;20451;-43
2022/10/18 02:45:32;;;;;;;28.58;16.15;;;;;;;;;;5092711;28;20685;-42
2022/10/18 02:47:58;;;;;;;28.67;17.50;;;;;;;;;;5093090;28;20009;-42
2022/10/18 02:50:23;;;;;;;28.83;16.25;;;;;;;;;;5093338;28;20085;-40
2022/10/18 02:52:48;;;;;;;30.63;17.92;;;;;;;;;;5092499;28;20380;-42
2022/10/18 02:55:14;;;;;;;36.45;20.33;;;;;;;;;;5074624;28;20056;-42
2022/10/18 02:57:39;;;;;;;39.45;19.98;;;;;;;;;;5093006;28;20055;-40
2022/10/18 03:00:05;;;;;;;30.35;17.75;;;;;;;;;;5092954;28;20020;-38
2022/10/18 03:02:30;;;;;;;33.15;18.83;;;;;;;;;;5092690;28;20016;-45
2022/10/18 03:04:55;;;;;;;31.95;18.17;;;;;;;;;;5092835;28;20458;-43
2022/10/18 03:07:20;;;;;;;30.73;19.25;;;;;;;;;;5092044;28;20028;-42
2022/10/18 03:09:46;;;;;;;32.88;19.55;;;;;;;;;;5092874;28;20132;-44
2022/10/18 03:12:11;;;;;;;34.63;20.23;;;;;;;;;;5092486;28;20028;-43
2022/10/18 03:14:37;;;;;;;34.85;18.92;;;;;;;;;;5092634;28;20055;-42
2022/10/18 03:17:02;;;;;;;32.15;18.95;;;;;;;;;;5092606;28;20341;-44
2022/10/18 03:19:27;;;;;;;34.13;20.00;;;;;;;;;;5092535;28;20072;-44
2022/10/18 03:21:52;;;;;;;44.75;20.42;;;;;;;;;;5092181;28;20095;-46
2022/10/18 03:24:18;;;;;;;31.42;19.42;;;;;;;;;;5092121;28;20040;-44
2022/10/18 03:26:43;;;;;;;34.47;18.05;;;;;;;;;;5091980;28;20020;-44
2022/10/18 03:29:09;;;;;;;33.53;19.77;;;;;;;;;;5092414;28;20077;-42
2022/10/18 03:31:34;;;;;;;35.00;19.20;;;;;;;;;;5092043;28;20012;-43
2022/10/18 03:33:59;;;;;;;38.67;19.73;;;;;;;;;;5092185;28;20028;-43
2022/10/18 03:36:24;;;;;;;31.48;19.85;;;;;;;;;;5092372;28;20020;-44
2022/10/18 03:38:50;;;;;;;32.40;18.83;;;;;;;;;;5091854;28;20024;-44
2022/10/18 03:41:15;;;;;;;30.60;18.17;;;;;;;;;;5092034;28;20021;-43
2022/10/18 03:43:40;;;;;;;32.55;18.10;;;;;;;;;;5091544;28;20379;-41
2022/10/18 03:46:05;;;;;;;32.15;18.55;;;;;;;;;;5091967;28;20024;-42
2022/10/18 03:48:31;;;;;;;34.25;18.25;;;;;;;;;;5091801;28;20061;-47
2022/10/18 03:50:56;;;;;;;33.15;18.67;;;;;;;;;;5091435;28;20017;-43
2022/10/18 03:53:21;;;;;;;30.65;18.10;;;;;;;;;;5092178;28;20034;-42
2022/10/18 03:55:54;;;;;;;35.05;19.40;;;;;;;;;;5091340;28;20031;-44
2022/10/18 03:58:20;;;;;;;42.00;20.25;;;;;;;;;;5091783;28;20040;-42
2022/10/18 04:00:49;;;;;;;33.22;19.63;;;;;;;;;;5091993;28;20038;-39
2022/10/18 04:03:15;;;;;;;31.27;18.00;;;;;;;;;;5091505;28;20455;-40
2022/10/18 04:05:40;;;;;;;33.20;18.45;;;;;;;;;;5091335;28;20028;-42
2022/10/18 04:08:05;;;;;;;32.40;18.75;;;;;;;;;;5091115;28;20070;-40
2022/10/18 04:10:31;;;;;;;34.53;18.02;;;;;;;;;;5091660;28;20016;-42
2022/10/18 04:12:56;;;;;;;31.13;18.13;;;;;;;;;;5091144;28;20031;-41
2022/10/18 04:15:21;;;;;;;34.38;19.88;;;;;;;;;;5091848;28;20016;-42
2022/10/18 04:17:46;;;;;;;39.33;20.15;;;;;;;;;;5091672;28;20023;-42
2022/10/18 04:20:12;;;;;;;32.70;19.70;;;;;;;;;;5091231;28;20024;-41
2022/10/18 04:22:37;;;;;;;33.35;18.75;;;;;;;;;;5091241;28;20037;-42
2022/10/18 04:25:03;;;;;;;31.88;19.63;;;;;;;;;;5091553;28;20032;-42
2022/10/18 04:27:29;;;;;;;35.88;18.95;;;;;;;;;;5091552;28;20107;-38
2022/10/18 04:29:54;;;;;;;30.63;18.88;;;;;;;;;;5091072;28;20069;-42
2022/10/18 04:32:20;;;;;;;33.85;18.38;;;;;;;;;;5090654;28;20028;-43
2022/10/18 04:34:45;;;;;;;33.78;19.45;;;;;;;;;;5091070;28;20024;-42
2022/10/18 04:37:10;;;;;;;31.77;17.33;;;;;;;;;;5092153;28;20020;-42
2022/10/18 04:39:35;;;;;;;35.00;19.13;;;;;;;;;;5095345;28;20103;-40
2022/10/18 04:42:01;;;;;;;30.30;17.08;;;;;;;;;;5095793;28;20042;-40
2022/10/18 04:44:26;;;;;;;32.40;18.60;;;;;;;;;;5095190;28;20436;-43
2022/10/18 04:46:51;;;;;;;31.48;18.27;;;;;;;;;;5095265;28;20094;-43
2022/10/18 04:49:17;;;;;;;28.85;16.88;;;;;;;;;;5095311;28;20058;-42
2022/10/18 04:51:42;;;;;;;28.42;17.10;;;;;;;;;;5095317;28;20020;-43
2022/10/18 04:54:07;;;;;;;27.92;16.20;;;;;;;;;;5095364;28;20042;-43
2022/10/18 04:56:32;;;;;;;24.90;15.63;;;;;;;;;;5094792;28;20043;-42
2022/10/18 04:58:58;;;;;;;29.95;15.88;;;;;;;;;;5095093;28;20016;-42
2022/10/18 05:01:24;;;;;;;38.33;17.77;;;;;;;;;;5095270;28;20093;-42
2022/10/18 05:03:53;;;;;;;29.38;17.73;;;;;;;;;;5094933;28;20036;-41
2022/10/18 05:06:18;;;;;;;29.77;16.80;;;;;;;;;;5094951;28;20456;-42
2022/10/18 05:08:44;;;;;;;27.85;17.02;;;;;;;;;;5094577;28;20028;-42
2022/10/18 05:11:09;;;;;;;31.00;17.08;;;;;;;;;;5095249;28;20016;-44
2022/10/18 05:13:34;;;;;;;27.52;16.95;;;;;;;;;;5094893;28;20024;-42
2022/10/18 05:15:59;;;;;;;28.80;16.77;;;;;;;;;;5095148;28;20030;-42
2022/10/18 05:18:25;;;;;;;31.33;17.02;;;;;;;;;;5095125;28;20039;-42
2022/10/18 05:20:50;;;;;;;26.40;16.08;;;;;;;;;;5093854;28;20016;-41
2022/10/18 05:23:16;;;;;;;25.90;15.88;;;;;;;;;;5094577;28;20059;-44
2022/10/18 05:25:41;;;;;;;32.10;17.52;;;;;;;;;;5094721;28;20026;-44
2022/10/18 05:28:07;;;;;;;33.38;18.85;;;;;;;;;;5095205;28;20051;-44
2022/10/18 05:30:32;;;;;;;29.15;17.38;;;;;;;;;;5094754;28;20426;-44
2022/10/18 05:32:58;;;;;;;32.55;16.40;;;;;;;;;;5094331;28;20539;-42
2022/10/18 05:35:23;;;;;;;30.75;17.17;;;;;;;;;;5094391;28;20024;-38
2022/10/18 05:37:48;;;;;;;44.00;19.00;;;;;;;;;;5094083;28;20095;-47
2022/10/18 05:40:14;;;;;;;33.40;18.30;;;;;;;;;;5075978;28;20148;-39
2022/10/18 05:42:39;;;;;;;31.35;18.20;;;;;;;;;;5088191;28;20024;-42
2022/10/18 05:45:04;;;;;;;34.85;18.88;;;;;;;;;;5085568;28;20059;-40
2022/10/18 05:47:30;;;;;;;36.20;20.02;;;;;;;;;;5091405;28;20013;-45
2022/10/18 05:49:55;;;;;;;35.05;19.45;;;;;;;;;;5092368;28;20107;-45
2022/10/18 05:52:20;;;;;;;40.25;19.70;;;;;;;;;;5093746;28;20026;-43
2022/10/18 05:54:46;;;;;;;27.10;16.25;;;;;;;;;;5083142;28;20034;-43
2022/10/18 05:57:11;;;;;;;31.10;16.33;;;;;;;;;;5057008;28;20059;-45
2022/10/18 05:59:36;;;;;;;52.73;20.23;;;;;;;;;;5059967;28;20033;-42
2022/10/18 06:02:01;;;;;;;32.90;17.25;;;;;;;;;;5053642;28;20250;-42
2022/10/18 06:04:27;;;;;;;36.97;18.02;;;;;;;;;;5057877;28;20036;-40
2022/10/18 06:06:53;;;;;;;36.60;17.15;;;;;;;;;;5053820;28;20032;-40
2022/10/18 06:09:19;;;;;;;40.00;18.63;;;;;;;;;;5056541;28;20024;-43
2022/10/18 06:11:44;;;;;;;33.63;16.80;;;;;;;;;;5059163;28;20543;-48
2022/10/18 06:14:09;;;;;;;40.35;18.25;;;;;;;;;;5055556;28;20103;-45
2022/10/18 06:16:35;;;;;;;31.17;16.27;;;;;;;;;;5066280;28;20008;-44
2022/10/18 06:19:00;;;;;;;37.28;17.65;;;;;;;;;;5055309;28;20707;-44
2022/10/18 06:21:25;;;;;;;31.95;16.50;;;;;;;;;;5065219;28;20450;-44
2022/10/18 06:23:52;;;;;;;33.15;15.60;;;;;;;;;;5056384;28;20073;-45
2022/10/18 06:26:17;;;;;;;39.13;17.70;;;;;;;;;;5061921;28;20056;-41
2022/10/18 06:28:43;;;;;;;38.70;18.25;;;;;;;;;;5052447;28;20064;-46
2022/10/18 06:31:09;;;;;;;35.53;17.10;;;;;;;;;;5067984;28;20091;-41
2022/10/18 06:33:35;;;;;;;37.55;16.05;;;;;;;;;;5053084;28;20116;-45
2022/10/18 06:36:06;;;;;;;32.95;16.42;;;;;;;;;;5050797;28;20051;-40
2022/10/18 06:38:32;;;;;;;39.35;16.95;;;;;;;;;;5053142;28;20082;-44
2022/10/18 06:40:58;;;;;;;28.83;13.65;;;;;;;;;;5063463;28;20032;-39
2022/10/18 06:43:23;;;;;;;33.42;15.20;;;;;;;;;;5055277;28;20388;-41
2022/10/18 06:45:49;;;;;;;39.78;16.75;;;;;;;;;;5056034;28;20095;-38
2022/10/18 06:48:14;;;;;;;45.95;19.58;;;;;;;;;;5053914;28;20040;-43
2022/10/18 06:50:40;;;;;;;45.38;18.73;;;;;;;;;;5051820;28;20025;-43
2022/10/18 06:53:07;;;;;;;35.65;15.55;;;;;;;;;;5059833;28;20056;-42
2022/10/18 06:55:33;;;;;;;29.77;13.95;;;;;;;;;;5051702;28;20025;-42
2022/10/18 06:57:58;;;;;;;29.92;13.50;;;;;;;;;;5061404;28;20044;-36
2022/10/18 07:00:23;;;;;;;30.27;13.20;;;;;;;;;;5056127;28;20033;-42
2022/10/18 07:02:48;;;;;;;51.80;11.98;;;;;;;;;;5058153;28;20048;-39
2022/10/18 07:05:14;;;;;;;18.77;10.23;;;;;;;;;;5050395;28;20036;-40
2022/10/18 07:07:39;;;;;;;16.33;10.43;;;;;;;;;;5052388;28;20036;-39
2022/10/18 07:10:05;;;;;;;20.40;9.70;;;;;;;;;;5050901;28;20028;-44
2022/10/18 07:12:31;;;;;;;15.50;9.18;;;;;;;;;;5058237;28;20108;-43
2022/10/18 07:14:56;;;;;;;17.45;9.63;;;;;;;;;;5063798;28;20024;-41
2022/10/18 07:17:21;;;;;;;20.00;9.13;;;;;;;;;;5056796;28;20099;-44
2022/10/18 07:19:46;;;;;;;20.17;10.03;;;;;;;;;;5069468;28;20016;-45
2022/10/18 07:22:12;;;;;;;16.57;9.60;;;;;;;;;;5068099;28;20411;-38
2022/10/18 07:24:37;;;;;;;15.83;9.70;;;;;;;;;;5057823;28;20293;-39
2022/10/18 07:27:02;;;;;;;20.05;8.85;;;;;;;;;;5062239;28;20701;-40
2022/10/18 07:29:28;;;;;;;34.45;10.27;;;;;;;;;;5068251;28;20464;-41
2022/10/18 07:31:53;;;;;;;31.45;9.50;;;;;;;;;;5052170;28;20025;-44
2022/10/18 07:34:19;;;;;;;18.27;8.93;;;;;;;;;;5053673;28;20482;-44
2022/10/18 07:36:44;;;;;;;19.38;9.40;;;;;;;;;;5053408;28;20029;-43
2022/10/18 07:39:10;;;;;;;17.55;9.20;;;;;;;;;;5065391;28;20103;-46
2022/10/18 07:41:36;;;;;;;17.02;9.20;;;;;;;;;;5062654;28;20111;-43
2022/10/18 07:44:02;;;;;;;14.32;8.95;;;;;;;;;;5052832;28;20068;-47
2022/10/18 07:46:28;;;;;;;17.13;9.00;;;;;;;;;;5051478;28;20040;-45
2022/10/18 07:48:53;;;;;;;18.40;9.40;;;;;;;;;;5049140;28;20024;-45
2022/10/18 07:51:19;;;;;;;18.30;10.38;;;;;;;;;;5055705;28;20047;-42
2022/10/18 07:53:44;;;;;;;21.67;9.65;;;;;;;;;;5055992;28;20032;-43
2022/10/18 07:56:15;;;;;;;16.35;9.07;;;;;;;;;;5060457;28;20071;-41
2022/10/18 07:58:40;;;;;;;14.23;8.77;;;;;;;;;;5084218;28;20399;-40
2022/10/18 08:01:06;;;;;;;48.80;10.23;;;;;;;;;;5081749;28;20024;-42
2022/10/18 08:03:32;;;;;;;18.20;8.60;;;;;;;;;;5072140;28;20043;-39
2022/10/18 08:05:57;;;;;;;24.02;8.98;;;;;;;;;;5071264;28;20375;-42
2022/10/18 08:08:23;;;;;;;23.33;9.15;;;;;;;;;;5075371;28;20027;-43
2022/10/18 08:10:48;;;;;;;19.17;9.55;;;;;;;;;;5068519;28;20134;-41
2022/10/18 08:13:14;;;;;;;19.20;9.23;;;;;;;;;;5084178;28;20027;-44
2022/10/18 08:15:40;;;;;;;16.55;8.13;;;;;;;;;;5070775;28;20017;-41
2022/10/18 08:18:05;;;;;;;20.23;8.47;;;;;;;;;;5067149;28;20024;-40
2022/10/18 08:20:32;;;;;;;15.18;7.82;;;;;;;;;;5069618;28;20742;-44
2022/10/18 08:22:57;;;;;;;16.25;8.25;;;;;;;;;;5080953;28;20112;-40
2022/10/18 08:25:23;;;;;;;16.65;7.68;;;;;;;;;;5082674;28;20123;-42
2022/10/18 08:27:48;;;;;;;11.63;6.87;;;;;;;;;;5072427;28;20025;-38
2022/10/18 08:30:13;;;;;;;19.00;6.95;;;;;;;;;;5082671;28;20257;-45
2022/10/18 08:32:38;;;;;;;11.23;6.63;;;;;;;;;;5080982;28;20063;-38
2022/10/18 08:35:04;;;;;;;10.48;6.28;;;;;;;;;;5081141;28;20288;-41
2022/10/18 08:37:29;;;;;;;16.35;6.90;;;;;;;;;;5069543;28;20107;-40
2022/10/18 08:39:55;;;;;;;18.35;7.18;;;;;;;;;;5075273;28;20027;-43
2022/10/18 08:42:39;;;;;;;16.98;6.22;;;;;;;;;;5076737;28;20031;-38
2022/10/18 08:45:05;;;;;;;17.35;7.68;;;;;;;;;;5072526;28;20031;-42
2022/10/18 08:47:41;;;;;;;13.65;7.32;;;;;;;;;;5068921;28;20029;-39
2022/10/18 08:50:11;;;;;;;13.18;7.13;;;;;;;;;;5074062;28;20028;-45
2022/10/18 08:52:42;;;;;;;17.60;6.55;;;;;;;;;;5078523;28;20496;-42
2022/10/18 08:55:22;;;;;;;16.75;6.85;;;;;;;;;;5070331;28;20032;-43
2022/10/18 08:57:48;;;;;;;15.45;6.57;;;;;;;;;;5070108;28;20059;-42
2022/10/18 09:00:15;;;;;;;15.75;6.68;;;;;;;;;;5075104;28;20044;-42
2022/10/18 09:02:49;;;;;;;13.52;6.70;;;;;;;;;;5073480;28;20024;-42
2022/10/18 09:05:14;;;;;;;14.40;5.82;;;;;;;;;;5070000;28;20075;-38
2022/10/18 09:07:50;;;;;;;13.68;5.90;;;;;;;;;;5083735;28;20055;-44
2022/10/18 09:10:37;;;;;;;10.85;5.32;;;;;;;;;;5090004;28;20031;-41
2022/10/18 09:13:21;;;;;;;19.17;6.45;;;;;;;;;;5081423;28;20391;-39
2022/10/18 09:16:09;;;;;;;21.17;5.22;;;;;;;;;;5073136;28;20099;-42
2022/10/18 09:18:54;;;;;;;13.60;6.05;;;;;;;;;;5078799;28;20078;-40
2022/10/18 09:21:22;;;;;;;13.18;5.53;;;;;;;;;;5071287;28;20025;-39
2022/10/18 09:23:54;;;;;;;7.38;5.35;;;;;;;;;;5072346;28;20189;-40
2022/10/18 09:26:20;;;;;;;10.32;5.22;;;;;;;;;;5072388;28;20051;-43
2022/10/18 09:28:54;;;;;;;15.70;5.60;;;;;;;;;;5057953;28;20039;-43
2022/10/18 09:31:49;;;;;;;12.30;5.38;;;;;;;;;;5074655;28;20035;-36
2022/10/18 09:34:29;;;;;;;18.52;5.72;;;;;;;;;;5016540;28;20094;-44
2022/10/18 09:36:55;;;;;;;13.60;5.45;;;;;;;;;;5075498;28;20024;-39
2022/10/18 09:39:22;;;;;;;13.45;5.13;;;;;;;;;;5081716;28;20030;-41
2022/10/18 09:42:00;;;;;;;13.32;4.80;;;;;;;;;;5075483;28;20033;-41
2022/10/18 09:44:25;;;;;;;15.15;4.55;;;;;;;;;;5081584;28;20393;-42
2022/10/18 09:47:17;;;;;;;12.70;4.32;;;;;;;;;;5073811;28;20073;-41
2022/10/18 09:49:44;;;;;;;12.52;5.13;;;;;;;;;;5065754;28;20054;-43
2022/10/18 09:52:16;;;;;;;11.98;5.05;;;;;;;;;;5073250;28;20028;-40
2022/10/18 09:55:08;;;;;;;9.50;5.57;;;;;;;;;;5072980;28;20021;-39
2022/10/18 09:57:41;;;;;;;12.88;5.07;;;;;;;;;;5077748;28;20052;-37
2022/10/18 10:00:13;;;;;;;17.98;5.28;;;;;;;;;;5080816;28;20032;-41
2022/10/18 10:02:39;;;;;;;10.55;4.53;;;;;;;;;;5074153;28;20226;-39
2022/10/18 10:05:05;;;;;;;13.43;4.57;;;;;;;;;;5071251;28;20095;-42
2022/10/18 10:07:34;;;;;;;8.75;4.40;;;;;;;;;;5074220;28;20466;-42
2022/10/18 10:09:59;;;;;;;;;;;;;;;;;;5091139;28;20015;-44
2022/10/18 10:12:29;;;;;;;12.65;4.93;;;;;;;;;;5086223;28;20390;-44
2022/10/18 10:15:05;;;;;;;14.30;5.40;;;;;;;;;;5072990;28;20029;-39
2022/10/18 10:17:31;;;;;;;11.18;5.30;;;;;;;;;;5065402;28;20036;-38
2022/10/18 10:20:23;;;;;;;13.02;5.40;;;;;;;;;;5061652;28;20032;-41
2022/10/18 10:22:50;;;;;;;12.32;4.72;;;;;;;;;;5074138;28;20040;-41
2022/10/18 10:25:29;;;;;;;13.45;3.88;;;;;;;;;;5083207;28;20074;-44
2022/10/18 10:27:55;;;;;;;16.52;5.53;;;;;;;;;;5072906;28;20106;-41
2022/10/18 10:30:20;;;;;;;8.07;4.30;;;;;;;;;;5079596;28;20514;-41
2022/10/18 10:32:47;;;;;;;6.23;3.80;;;;;;;;;;5083804;28;20538;-39
2022/10/18 10:35:38;;;;;;;14.55;4.78;;;;;;;;;;5070968;28;20268;-41
2022/10/18 10:38:04;;;;;;;9.45;4.00;;;;;;;;;;5078575;28;20046;-46
2022/10/18 10:40:30;;;;;;;9.00;4.32;;;;;;;;;;5090500;28;20099;-43
2022/10/18 10:43:04;;;;;;;8.88;4.60;;;;;;;;;;5091067;28;20028;-44
2022/10/18 10:45:49;;;;;;;22.40;11.43;;;;;;;;;;5090643;28;20039;-41
2022/10/18 10:48:15;;;;;;;6.72;4.68;;;;;;;;;;5069303;28;20036;-40
2022/10/18 10:50:53;;;;;;;17.45;4.93;;;;;;;;;;5077749;28;20517;-43
2022/10/18 10:53:26;;;;;;;5.97;4.00;;;;;;;;;;5061562;28;20036;-45
2022/10/18 10:55:52;;;;;;;8.25;4.50;;;;;;;;;;5072324;28;20387;-41
2022/10/18 10:58:18;;;;;;;9.77;4.80;;;;;;;;;;5071635;28;20041;-44
2022/10/18 11:00:43;;;;;;;9.27;5.00;;;;;;;;;;5079433;28;20035;-42
2022/10/18 11:03:11;;;;;;;7.55;3.80;;;;;;;;;;5078569;28;20016;-41
2022/10/18 11:05:54;;;;;;;8.80;3.80;;;;;;;;;;5090507;28;20060;-41
2022/10/18 11:08:31;;;;;;;5.32;3.58;;;;;;;;;;5075616;28;20463;-40
2022/10/18 11:10:56;;;;;;;8.18;3.60;;;;;;;;;;5071735;28;20059;-42
2022/10/18 11:13:22;;;;;;;11.07;4.23;;;;;;;;;;5075960;28;20052;-40
2022/10/18 11:15:52;;;;;;;4.85;3.25;;;;;;;;;;5071573;28;20020;-39
2022/10/18 11:18:36;;;;;;;6.60;3.35;;;;;;;;;;5071491;28;20363;-44
2022/10/18 11:21:07;;;;;;;12.98;2.95;;;;;;;;;;5072870;28;20103;-41
2022/10/18 11:23:37;;;;;;;7.72;3.33;;;;;;;;;;5071856;28;20016;-42
2022/10/18 11:26:08;;;;;;;14.15;4.55;;;;;;;;;;5069992;28;20456;-45
2022/10/18 11:28:52;;;;;;;9.93;3.60;;;;;;;;;;5072773;28;20028;-41
2022/10/18 11:31:26;;;;;;;15.63;4.13;;;;;;;;;;5088250;28;20071;-41
2022/10/18 11:34:00;;;;;;;15.68;5.18;;;;;;;;;;5081360;28;20024;-43
2022/10/18 11:36:32;;;;;;;16.60;4.07;;;;;;;;;;5070656;28;20028;-42
2022/10/18 11:39:23;;;;;;;7.78;3.38;;;;;;;;;;5070906;28;20021;-44
2022/10/18 11:42:04;;;;;;;6.72;3.80;;;;;;;;;;5070693;28;20101;-41
2022/10/18 11:44:46;;;;;;;11.07;3.50;;;;;;;;;;5078254;28;20072;-42
2022/10/18 11:47:35;;;;;;;11.50;3.40;;;;;;;;;;5079677;28;20028;-42
2022/10/18 11:50:08;;;;;;;12.50;4.28;;;;;;;;;;5030099;28;20468;-46
2022/10/18 11:52:55;;;;;;;5.30;3.50;;;;;;;;;;5074666;28;20099;-40
2022/10/18 11:55:50;;;;;;;6.85;3.20;;;;;;;;;;5086155;28;20053;-42
2022/10/18 11:58:15;;;;;;;6.28;3.90;;;;;;;;;;5024787;28;20053;-44
2022/10/18 12:00:53;;;;;;;7.40;3.60;;;;;;;;;;5077788;28;20020;-44
2022/10/18 12:03:36;;;;;;;8.77;3.45;;;;;;;;;;5074944;28;20085;-44
2022/10/18 12:06:09;;;;;;;7.95;4.10;;;;;;;;;;5080226;28;20028;-45
2022/10/18 12:08:40;;;;;;;9.30;3.53;;;;;;;;;;5073647;28;20463;-43
2022/10/18 12:11:12;;;;;;;8.02;3.17;;;;;;;;;;5079851;28;20097;-43
2022/10/18 12:13:43;;;;;;;8.43;4.10;;;;;;;;;;5070651;28;20020;-42
2022/10/18 12:16:09;;;;;;;6.97;3.55;;;;;;;;;;5069875;28;20365;-37
2022/10/18 12:18:35;;;;;;;11.20;3.67;;;;;;;;;;5086116;28;20487;-40
2022/10/18 12:21:01;;;;;;;15.70;6.07;;;;;;;;;;5089257;28;20052;-43
2022/10/18 12:23:29;;;;;;;7.70;3.20;;;;;;;;;;5069795;28;20032;-43
2022/10/18 12:25:58;;;;;;;6.83;3.80;;;;;;;;;;5070333;28;20025;-44
2022/10/18 12:28:42;;;;;;;17.90;7.13;;;;;;;;;;5074244;28;21071;-40
2022/10/18 12:31:17;;;;;;;14.77;5.40;;;;;;;;;;5076264;28;20028;-44
2022/10/18 12:33:47;;;;;;;8.38;4.13;;;;;;;;;;5077262;28;20016;-43
2022/10/18 12:36:13;;;;;;;7.68;4.07;;;;;;;;;;5070295;28;20035;-41
2022/10/18 12:38:40;;;;;;;8.57;3.47;;;;;;;;;;5079451;28;20384;-37
2022/10/18 12:41:06;;;;;;;17.90;3.78;;;;;;;;;;5081492;28;20429;-40
2022/10/18 12:43:38;;;;;;;9.02;3.58;;;;;;;;;;5080984;28;20148;-36
2022/10/18 12:46:05;;;;;;;8.95;3.38;;;;;;;;;;5073012;28;20388;-43
2022/10/18 12:48:30;;;;;;;6.20;3.53;;;;;;;;;;5069525;28;20098;-43
2022/10/18 12:50:58;;;;;;;9.82;3.42;;;;;;;;;;5077837;28;20041;-46
2022/10/18 12:53:25;;;;;;;19.05;3.67;;;;;;;;;;5068584;28;20025;-43
2022/10/18 12:55:52;;;;;;;7.85;3.63;;;;;;;;;;5069995;28;20126;-45
2022/10/18 12:58:22;;;;;;;10.25;3.85;;;;;;;;;;5075959;28;20479;-40
2022/10/18 13:00:48;;;;;;;11.80;4.05;;;;;;;;;;5077523;28;20028;-43
2022/10/18 13:03:15;;;;;;;8.45;3.83;;;;;;;;;;5081802;28;20021;-40
2022/10/18 13:05:47;;;;;;;10.25;3.88;;;;;;;;;;5073619;28;20384;-42
2022/10/18 13:08:32;;;;;;;6.57;3.72;;;;;;;;;;5076829;28;20373;-41
2022/10/18 13:11:00;;;;;;;7.78;3.88;;;;;;;;;;5077498;28;20108;-38
2022/10/18 13:13:51;;;;;;;13.98;5.55;;;;;;;;;;5077461;28;20028;-44
2022/10/18 13:16:20;;;;;;;15.70;5.90;;;;;;;;;;5047601;28;20101;-42
2022/10/18 13:18:46;;;;;;;;;;;;;;;;;;5078276;28;20111;-45
2022/10/18 13:21:17;;;;;;;9.37;4.43;;;;;;;;;;5073138;28;19991;-43
2022/10/18 13:23:46;;;;;;;10.00;3.83;;;;;;;;;;5072740;28;20526;-44
2022/10/18 13:26:33;;;;;;;10.10;4.40;;;;;;;;;;5073303;28;20024;-42
2022/10/18 13:29:17;;;;;;;10.23;3.90;;;;;;;;;;5067584;28;20305;-44
2022/10/18 13:31:50;;;;;;;20.42;4.22;;;;;;;;;;5086664;28;20106;-43
2022/10/18 13:34:37;;;;;;;10.35;4.93;;;;;;;;;;5091539;28;20024;-43
2022/10/18 13:37:06;;;;;;;10.25;4.25;;;;;;;;;;5087160;28;20020;-43
2022/10/18 13:39:31;;;;;;;8.77;4.20;;;;;;;;;;5091829;28;20035;-41
2022/10/18 13:41:57;;;;;;;13.75;4.78;;;;;;;;;;5076086;28;20103;-44
2022/10/18 13:44:24;;;;;;;6.82;4.00;;;;;;;;;;5078215;28;20036;-45
2022/10/18 13:46:50;;;;;;;10.88;4.10;;;;;;;;;;5086429;28;20020;-42
2022/10/18 13:49:34;;;;;;;6.82;3.35;;;;;;;;;;5073131;28;20395;-44
2022/10/18 13:52:02;;;;;;;11.80;3.55;;;;;;;;;;5074095;28;20090;-44
2022/10/18 13:54:27;;;;;;;6.78;3.72;;;;;;;;;;5082429;28;20054;-47
2022/10/18 13:56:52;;;;;;;11.07;3.90;;;;;;;;;;5092197;28;20397;-45
2022/10/18 13:59:42;;;;;;;17.60;4.43;;;;;;;;;;5079239;28;20028;-45
2022/10/18 14:02:17;;;;;;;16.42;4.25;;;;;;;;;;5086438;28;20118;-43
2022/10/18 14:04:54;;;;;;;12.45;4.57;;;;;;;;;;5093732;28;20055;-44
2022/10/18 14:07:19;;;;;;;16.20;4.20;;;;;;;;;;5086237;28;20028;-44
2022/10/18 14:09:49;;;;;;;17.27;8.23;;;;;;;;;;5089601;28;20020;-45
2022/10/18 14:12:27;;;;;;;22.75;5.32;;;;;;;;;;5076097;28;20379;-45
2022/10/18 14:15:04;;;;;;;22.63;10.60;;;;;;;;;;5088739;28;20113;-46
2022/10/18 14:17:49;;;;;;;47.60;19.90;;;;;;;;;;5091933;28;20028;-45
2022/10/18 14:20:35;;;;;;;15.57;5.90;;;;;;;;;;5092080;28;20093;-47
2022/10/18 14:23:00;;;;;;;17.50;7.72;;;;;;;;;;5091125;28;20066;-45
2022/10/18 14:25:34;;;;;;;15.25;6.45;;;;;;;;;;5054346;28;20032;-44
2022/10/18 14:28:09;;;;;;;14.68;6.00;;;;;;;;;;5074693;28;20028;-44
2022/10/18 14:30:35;;;;;;;30.33;7.20;;;;;;;;;;5081275;28;20024;-39
2022/10/18 14:33:00;;;;;;;12.80;4.88;;;;;;;;;;5093265;28;20351;-40
2022/10/18 14:35:27;;;;;;;27.23;10.43;;;;;;;;;;5090909;28;20028;-41
2022/10/18 14:37:53;;;;;;;20.30;6.60;;;;;;;;;;5093574;28;20031;-42